sensor_id;sensor_type;location;lat;lon;timestamp;P1;durP1;ratioP1;P2;durP2;ratioP2
20090;SDS011;10205;49.678;6.560;2023-06-14T00:01:09;3.40;;;2.80;;
20090;SDS011;10205;49.678;6.560;2023-06-14T00:03:38;2.75;;;2.55;;
20090;SDS011;10205;49.678;6.560;2023-06-14T00:06:05;3.35;;;3.05;;
20090;SDS011;10205;49.678;6.560;2023-06-14T00:08:33;3.60;;;3.30;;
20090;SDS011;10205;49.678;6.560;2023-06-14T00:11:01;3.55;;;3.25;;
20090;SDS011;10205;49.678;6.560;2023-06-14T00:13:28;3.35;;;3.00;;
20090;SDS011;10205;49.678;6.560;2023-06-14T00:15:56;3.40;;;3.10;;
20090;SDS011;10205;49.678;6.560;2023-06-14T00:18:23;3.60;;;3.28;;
20090;SDS011;10205;49.678;6.560;2023-06-14T00:20:54;3.70;;;3.35;;
20090;SDS011;10205;49.678;6.560;2023-06-14T00:23:21;3.58;;;3.25;;
20090;SDS011;10205;49.678;6.560;2023-06-14T00:25:49;3.60;;;3.30;;
20090;SDS011;10205;49.678;6.560;2023-06-14T00:28:17;4.40;;;3.40;;
20090;SDS011;10205;49.678;6.560;2023-06-14T00:30:45;3.13;;;2.85;;
20090;SDS011;10205;49.678;6.560;2023-06-14T00:33:13;3.70;;;3.30;;
20090;SDS011;10205;49.678;6.560;2023-06-14T00:35:40;4.43;;;3.47;;
20090;SDS011;10205;49.678;6.560;2023-06-14T00:38:07;3.67;;;3.38;;
20090;SDS011;10205;49.678;6.560;2023-06-14T00:40:34;3.20;;;2.85;;
20090;SDS011;10205;49.678;6.560;2023-06-14T00:43:02;3.42;;;3.13;;
20090;SDS011;10205;49.678;6.560;2023-06-14T00:45:30;3.65;;;3.22;;
20090;SDS011;10205;49.678;6.560;2023-06-14T00:48:01;3.58;;;3.20;;
20090;SDS011;10205;49.678;6.560;2023-06-14T00:50:31;3.53;;;3.22;;
20090;SDS011;10205;49.678;6.560;2023-06-14T00:52:59;3.75;;;3.35;;
20090;SDS011;10205;49.678;6.560;2023-06-14T00:55:27;3.67;;;3.38;;
20090;SDS011;10205;49.678;6.560;2023-06-14T00:57:54;3.65;;;3.03;;
20090;SDS011;10205;49.678;6.560;2023-06-14T01:00:22;3.65;;;3.25;;
20090;SDS011;10205;49.678;6.560;2023-06-14T01:02:51;5.05;;;3.17;;
20090;SDS011;10205;49.678;6.560;2023-06-14T01:05:18;3.72;;;3.42;;
20090;SDS011;10205;49.678;6.560;2023-06-14T01:07:59;3.88;;;3.20;;
20090;SDS011;10205;49.678;6.560;2023-06-14T01:10:47;3.58;;;3.25;;
20090;SDS011;10205;49.678;6.560;2023-06-14T01:13:27;3.90;;;3.40;;
20090;SDS011;10205;49.678;6.560;2023-06-14T01:16:00;4.22;;;3.50;;
20090;SDS011;10205;49.678;6.560;2023-06-14T01:18:29;11.05;;;3.50;;
20090;SDS011;10205;49.678;6.560;2023-06-14T01:20:57;4.05;;;3.65;;
20090;SDS011;10205;49.678;6.560;2023-06-14T01:23:26;3.70;;;3.40;;
20090;SDS011;10205;49.678;6.560;2023-06-14T01:25:57;3.30;;;3.00;;
20090;SDS011;10205;49.678;6.560;2023-06-14T01:28:28;3.80;;;3.10;;
20090;SDS011;10205;49.678;6.560;2023-06-14T01:30:59;3.83;;;3.38;;
20090;SDS011;10205;49.678;6.560;2023-06-14T01:33:29;6.05;;;3.20;;
20090;SDS011;10205;49.678;6.560;2023-06-14T01:35:59;3.45;;;3.03;;
20090;SDS011;10205;49.678;6.560;2023-06-14T01:38:30;3.50;;;3.15;;
20090;SDS011;10205;49.678;6.560;2023-06-14T01:40:58;4.22;;;3.25;;
20090;SDS011;10205;49.678;6.560;2023-06-14T01:43:27;3.30;;;3.00;;
20090;SDS011;10205;49.678;6.560;2023-06-14T01:45:57;4.38;;;3.60;;
20090;SDS011;10205;49.678;6.560;2023-06-14T01:48:26;3.35;;;3.03;;
20090;SDS011;10205;49.678;6.560;2023-06-14T01:50:53;3.80;;;3.17;;
20090;SDS011;10205;49.678;6.560;2023-06-14T01:53:21;3.63;;;3.33;;
20090;SDS011;10205;49.678;6.560;2023-06-14T01:55:49;3.65;;;3.30;;
20090;SDS011;10205;49.678;6.560;2023-06-14T01:58:19;4.07;;;3.28;;
20090;SDS011;10205;49.678;6.560;2023-06-14T02:00:46;3.30;;;3.00;;
20090;SDS011;10205;49.678;6.560;2023-06-14T02:03:13;3.17;;;2.80;;
20090;SDS011;10205;49.678;6.560;2023-06-14T02:05:40;3.30;;;3.00;;
20090;SDS011;10205;49.678;6.560;2023-06-14T02:08:07;4.30;;;3.45;;
20090;SDS011;10205;49.678;6.560;2023-06-14T02:10:35;4.15;;;3.55;;
20090;SDS011;10205;49.678;6.560;2023-06-14T02:13:03;3.53;;;3.10;;
20090;SDS011;10205;49.678;6.560;2023-06-14T02:15:30;3.45;;;3.15;;
20090;SDS011;10205;49.678;6.560;2023-06-14T02:18:00;3.30;;;3.00;;
20090;SDS011;10205;49.678;6.560;2023-06-14T02:20:28;3.85;;;3.35;;
20090;SDS011;10205;49.678;6.560;2023-06-14T02:22:57;4.65;;;3.60;;
20090;SDS011;10205;49.678;6.560;2023-06-14T02:25:24;4.05;;;3.65;;
20090;SDS011;10205;49.678;6.560;2023-06-14T02:27:52;3.75;;;3.30;;
20090;SDS011;10205;49.678;6.560;2023-06-14T02:30:21;3.97;;;3.38;;
20090;SDS011;10205;49.678;6.560;2023-06-14T02:32:48;3.50;;;2.80;;
20090;SDS011;10205;49.678;6.560;2023-06-14T02:35:16;6.50;;;3.25;;
20090;SDS011;10205;49.678;6.560;2023-06-14T02:37:43;3.65;;;3.25;;
20090;SDS011;10205;49.678;6.560;2023-06-14T02:40:11;3.60;;;3.28;;
20090;SDS011;10205;49.678;6.560;2023-06-14T02:42:38;3.60;;;3.15;;
20090;SDS011;10205;49.678;6.560;2023-06-14T02:45:06;4.13;;;3.22;;
20090;SDS011;10205;49.678;6.560;2023-06-14T02:47:36;3.80;;;3.45;;
20090;SDS011;10205;49.678;6.560;2023-06-14T02:50:03;4.63;;;3.60;;
20090;SDS011;10205;49.678;6.560;2023-06-14T02:52:32;5.22;;;3.15;;
20090;SDS011;10205;49.678;6.560;2023-06-14T02:55:00;3.60;;;3.30;;
20090;SDS011;10205;49.678;6.560;2023-06-14T02:57:27;4.43;;;3.78;;
20090;SDS011;10205;49.678;6.560;2023-06-14T02:59:54;3.42;;;3.13;;
20090;SDS011;10205;49.678;6.560;2023-06-14T03:02:21;5.32;;;3.38;;
20090;SDS011;10205;49.678;6.560;2023-06-14T03:04:50;3.50;;;3.20;;
20090;SDS011;10205;49.678;6.560;2023-06-14T03:07:17;3.50;;;3.20;;
20090;SDS011;10205;49.678;6.560;2023-06-14T03:09:45;4.35;;;3.45;;
20090;SDS011;10205;49.678;6.560;2023-06-14T03:12:13;6.45;;;3.63;;
20090;SDS011;10205;49.678;6.560;2023-06-14T03:14:41;4.35;;;3.70;;
20090;SDS011;10205;49.678;6.560;2023-06-14T03:17:10;3.40;;;3.10;;
20090;SDS011;10205;49.678;6.560;2023-06-14T03:19:38;3.47;;;3.17;;
20090;SDS011;10205;49.678;6.560;2023-06-14T03:22:07;4.25;;;3.42;;
20090;SDS011;10205;49.678;6.560;2023-06-14T03:24:36;3.75;;;3.00;;
20090;SDS011;10205;49.678;6.560;2023-06-14T03:27:05;3.78;;;3.47;;
20090;SDS011;10205;49.678;6.560;2023-06-14T03:29:32;3.70;;;3.33;;
20090;SDS011;10205;49.678;6.560;2023-06-14T03:32:00;4.10;;;3.70;;
20090;SDS011;10205;49.678;6.560;2023-06-14T03:34:28;4.07;;;3.67;;
20090;SDS011;10205;49.678;6.560;2023-06-14T03:36:56;4.90;;;3.55;;
20090;SDS011;10205;49.678;6.560;2023-06-14T03:39:24;4.10;;;3.58;;
20090;SDS011;10205;49.678;6.560;2023-06-14T03:41:51;3.15;;;2.85;;
20090;SDS011;10205;49.678;6.560;2023-06-14T03:44:19;4.05;;;3.45;;
20090;SDS011;10205;49.678;6.560;2023-06-14T03:46:47;3.63;;;3.28;;
20090;SDS011;10205;49.678;6.560;2023-06-14T03:49:15;3.42;;;2.92;;
20090;SDS011;10205;49.678;6.560;2023-06-14T03:51:42;4.38;;;3.08;;
20090;SDS011;10205;49.678;6.560;2023-06-14T03:54:10;3.63;;;3.30;;
20090;SDS011;10205;49.678;6.560;2023-06-14T03:56:38;3.47;;;3.17;;
20090;SDS011;10205;49.678;6.560;2023-06-14T03:59:06;3.65;;;3.35;;
20090;SDS011;10205;49.678;6.560;2023-06-14T04:01:33;4.03;;;3.63;;
20090;SDS011;10205;49.678;6.560;2023-06-14T04:04:01;3.50;;;3.20;;
20090;SDS011;10205;49.678;6.560;2023-06-14T04:06:28;7.32;;;3.42;;
20090;SDS011;10205;49.678;6.560;2023-06-14T04:08:58;4.07;;;3.65;;
20090;SDS011;10205;49.678;6.560;2023-06-14T04:11:29;4.03;;;3.60;;
20090;SDS011;10205;49.678;6.560;2023-06-14T04:13:59;3.80;;;3.40;;
20090;SDS011;10205;49.678;6.560;2023-06-14T04:16:26;3.80;;;3.50;;
20090;SDS011;10205;49.678;6.560;2023-06-14T04:18:54;4.32;;;2.95;;
20090;SDS011;10205;49.678;6.560;2023-06-14T04:21:23;4.82;;;3.22;;
20090;SDS011;10205;49.678;6.560;2023-06-14T04:23:52;3.72;;;3.28;;
20090;SDS011;10205;49.678;6.560;2023-06-14T04:26:20;5.03;;;3.60;;
20090;SDS011;10205;49.678;6.560;2023-06-14T04:28:54;4.72;;;3.38;;
20090;SDS011;10205;49.678;6.560;2023-06-14T04:31:28;3.63;;;3.30;;
20090;SDS011;10205;49.678;6.560;2023-06-14T04:33:58;3.83;;;3.45;;
20090;SDS011;10205;49.678;6.560;2023-06-14T04:36:26;4.55;;;3.78;;
20090;SDS011;10205;49.678;6.560;2023-06-14T04:38:53;4.20;;;3.20;;
20090;SDS011;10205;49.678;6.560;2023-06-14T04:41:20;3.78;;;3.35;;
20090;SDS011;10205;49.678;6.560;2023-06-14T04:43:48;4.38;;;3.17;;
20090;SDS011;10205;49.678;6.560;2023-06-14T04:46:18;5.25;;;3.15;;
20090;SDS011;10205;49.678;6.560;2023-06-14T04:48:46;3.42;;;3.03;;
20090;SDS011;10205;49.678;6.560;2023-06-14T04:51:15;3.30;;;3.00;;
20090;SDS011;10205;49.678;6.560;2023-06-14T04:53:45;4.38;;;3.70;;
20090;SDS011;10205;49.678;6.560;2023-06-14T04:56:14;2.85;;;2.63;;
20090;SDS011;10205;49.678;6.560;2023-06-14T04:58:42;3.38;;;3.03;;
20090;SDS011;10205;49.678;6.560;2023-06-14T05:01:09;3.53;;;3.08;;
20090;SDS011;10205;49.678;6.560;2023-06-14T05:03:37;3.33;;;3.03;;
20090;SDS011;10205;49.678;6.560;2023-06-14T05:06:07;3.80;;;3.50;;
20090;SDS011;10205;49.678;6.560;2023-06-14T05:08:35;4.75;;;3.38;;
20090;SDS011;10205;49.678;6.560;2023-06-14T05:11:02;5.15;;;3.53;;
20090;SDS011;10205;49.678;6.560;2023-06-14T05:13:29;3.80;;;3.25;;
20090;SDS011;10205;49.678;6.560;2023-06-14T05:15:57;3.90;;;3.45;;
20090;SDS011;10205;49.678;6.560;2023-06-14T05:18:25;3.78;;;3.38;;
20090;SDS011;10205;49.678;6.560;2023-06-14T05:20:53;3.50;;;3.20;;
20090;SDS011;10205;49.678;6.560;2023-06-14T05:23:21;4.40;;;3.35;;
20090;SDS011;10205;49.678;6.560;2023-06-14T05:25:49;4.35;;;3.53;;
20090;SDS011;10205;49.678;6.560;2023-06-14T05:28:16;3.97;;;3.50;;
20090;SDS011;10205;49.678;6.560;2023-06-14T05:30:43;3.90;;;3.50;;
20090;SDS011;10205;49.678;6.560;2023-06-14T05:33:11;3.67;;;3.30;;
20090;SDS011;10205;49.678;6.560;2023-06-14T05:35:38;5.72;;;3.70;;
20090;SDS011;10205;49.678;6.560;2023-06-14T05:38:05;5.00;;;3.28;;
20090;SDS011;10205;49.678;6.560;2023-06-14T05:40:34;4.13;;;3.58;;
20090;SDS011;10205;49.678;6.560;2023-06-14T05:43:01;5.00;;;3.58;;
20090;SDS011;10205;49.678;6.560;2023-06-14T05:45:29;4.50;;;3.35;;
20090;SDS011;10205;49.678;6.560;2023-06-14T05:47:56;3.63;;;3.33;;
20090;SDS011;10205;49.678;6.560;2023-06-14T05:50:23;3.70;;;3.33;;
20090;SDS011;10205;49.678;6.560;2023-06-14T05:52:50;3.78;;;3.25;;
20090;SDS011;10205;49.678;6.560;2023-06-14T05:55:18;3.85;;;3.45;;
20090;SDS011;10205;49.678;6.560;2023-06-14T05:57:46;7.15;;;3.60;;
20090;SDS011;10205;49.678;6.560;2023-06-14T06:00:14;3.65;;;3.35;;
20090;SDS011;10205;49.678;6.560;2023-06-14T06:02:43;4.13;;;3.70;;
20090;SDS011;10205;49.678;6.560;2023-06-14T06:05:12;5.35;;;3.80;;
20090;SDS011;10205;49.678;6.560;2023-06-14T06:07:41;8.50;;;3.67;;
20090;SDS011;10205;49.678;6.560;2023-06-14T06:10:09;4.70;;;4.15;;
20090;SDS011;10205;49.678;6.560;2023-06-14T06:12:37;4.75;;;3.70;;
20090;SDS011;10205;49.678;6.560;2023-06-14T06:15:06;8.23;;;3.95;;
20090;SDS011;10205;49.678;6.560;2023-06-14T06:17:37;6.93;;;3.80;;
20090;SDS011;10205;49.678;6.560;2023-06-14T06:20:04;3.95;;;3.55;;
20090;SDS011;10205;49.678;6.560;2023-06-14T06:22:33;4.10;;;3.70;;
20090;SDS011;10205;49.678;6.560;2023-06-14T06:25:00;4.45;;;3.47;;
20090;SDS011;10205;49.678;6.560;2023-06-14T06:27:28;5.90;;;3.70;;
20090;SDS011;10205;49.678;6.560;2023-06-14T06:29:55;4.25;;;3.85;;
20090;SDS011;10205;49.678;6.560;2023-06-14T06:32:24;5.13;;;3.88;;
20090;SDS011;10205;49.678;6.560;2023-06-14T06:34:51;5.18;;;3.67;;
20090;SDS011;10205;49.678;6.560;2023-06-14T06:37:19;4.43;;;3.55;;
20090;SDS011;10205;49.678;6.560;2023-06-14T06:39:46;7.93;;;4.05;;
20090;SDS011;10205;49.678;6.560;2023-06-14T06:42:13;4.55;;;3.90;;
20090;SDS011;10205;49.678;6.560;2023-06-14T06:44:41;6.78;;;3.78;;
20090;SDS011;10205;49.678;6.560;2023-06-14T06:47:08;7.85;;;3.47;;
20090;SDS011;10205;49.678;6.560;2023-06-14T06:49:37;5.78;;;3.78;;
20090;SDS011;10205;49.678;6.560;2023-06-14T06:52:07;6.53;;;4.07;;
20090;SDS011;10205;49.678;6.560;2023-06-14T06:54:34;6.28;;;4.18;;
20090;SDS011;10205;49.678;6.560;2023-06-14T06:57:02;8.52;;;3.83;;
20090;SDS011;10205;49.678;6.560;2023-06-14T06:59:31;5.90;;;3.53;;
20090;SDS011;10205;49.678;6.560;2023-06-14T07:01:58;4.35;;;3.95;;
20090;SDS011;10205;49.678;6.560;2023-06-14T07:04:26;4.78;;;4.13;;
20090;SDS011;10205;49.678;6.560;2023-06-14T07:06:54;8.15;;;3.75;;
20090;SDS011;10205;49.678;6.560;2023-06-14T07:09:21;7.55;;;3.97;;
20090;SDS011;10205;49.678;6.560;2023-06-14T07:11:49;4.72;;;4.13;;
20090;SDS011;10205;49.678;6.560;2023-06-14T07:14:17;6.75;;;3.90;;
20090;SDS011;10205;49.678;6.560;2023-06-14T07:16:44;6.13;;;3.70;;
20090;SDS011;10205;49.678;6.560;2023-06-14T07:19:11;8.77;;;3.47;;
20090;SDS011;10205;49.678;6.560;2023-06-14T07:21:39;15.15;;;3.70;;
20090;SDS011;10205;49.678;6.560;2023-06-14T07:24:07;8.70;;;3.55;;
20090;SDS011;10205;49.678;6.560;2023-06-14T07:26:35;5.57;;;3.72;;
20090;SDS011;10205;49.678;6.560;2023-06-14T07:29:02;5.25;;;3.58;;
20090;SDS011;10205;49.678;6.560;2023-06-14T07:31:30;6.10;;;3.63;;
20090;SDS011;10205;49.678;6.560;2023-06-14T07:33:57;5.20;;;3.92;;
20090;SDS011;10205;49.678;6.560;2023-06-14T07:36:24;6.20;;;3.47;;
20090;SDS011;10205;49.678;6.560;2023-06-14T07:38:51;7.03;;;3.47;;
20090;SDS011;10205;49.678;6.560;2023-06-14T07:41:20;5.05;;;3.90;;
20090;SDS011;10205;49.678;6.560;2023-06-14T07:43:47;5.28;;;3.83;;
20090;SDS011;10205;49.678;6.560;2023-06-14T07:46:15;6.13;;;3.42;;
20090;SDS011;10205;49.678;6.560;2023-06-14T07:48:42;7.85;;;3.85;;
20090;SDS011;10205;49.678;6.560;2023-06-14T07:51:09;4.47;;;3.70;;
20090;SDS011;10205;49.678;6.560;2023-06-14T07:53:36;11.55;;;4.07;;
20090;SDS011;10205;49.678;6.560;2023-06-14T07:56:04;3.55;;;3.10;;
20090;SDS011;10205;49.678;6.560;2023-06-14T07:58:32;10.75;;;4.20;;
20090;SDS011;10205;49.678;6.560;2023-06-14T08:01:00;5.47;;;3.90;;
20090;SDS011;10205;49.678;6.560;2023-06-14T08:03:31;4.32;;;3.50;;
20090;SDS011;10205;49.678;6.560;2023-06-14T08:05:58;5.93;;;3.70;;
20090;SDS011;10205;49.678;6.560;2023-06-14T08:08:26;6.47;;;3.78;;
20090;SDS011;10205;49.678;6.560;2023-06-14T08:10:53;6.07;;;3.75;;
20090;SDS011;10205;49.678;6.560;2023-06-14T08:13:20;7.75;;;3.85;;
20090;SDS011;10205;49.678;6.560;2023-06-14T08:15:49;4.90;;;3.63;;
20090;SDS011;10205;49.678;6.560;2023-06-14T08:18:16;4.45;;;3.50;;
20090;SDS011;10205;49.678;6.560;2023-06-14T08:20:44;5.68;;;3.25;;
20090;SDS011;10205;49.678;6.560;2023-06-14T08:23:11;6.88;;;3.63;;
20090;SDS011;10205;49.678;6.560;2023-06-14T08:25:38;4.22;;;3.83;;
20090;SDS011;10205;49.678;6.560;2023-06-14T08:28:05;7.07;;;4.25;;
20090;SDS011;10205;49.678;6.560;2023-06-14T08:30:32;8.00;;;3.47;;
20090;SDS011;10205;49.678;6.560;2023-06-14T08:33:01;5.63;;;3.45;;
20090;SDS011;10205;49.678;6.560;2023-06-14T08:35:28;9.23;;;3.75;;
20090;SDS011;10205;49.678;6.560;2023-06-14T08:37:55;6.65;;;3.97;;
20090;SDS011;10205;49.678;6.560;2023-06-14T08:40:23;4.95;;;3.65;;
20090;SDS011;10205;49.678;6.560;2023-06-14T08:42:51;4.47;;;3.78;;
20090;SDS011;10205;49.678;6.560;2023-06-14T08:45:19;4.57;;;3.63;;
20090;SDS011;10205;49.678;6.560;2023-06-14T08:47:47;6.32;;;3.53;;
20090;SDS011;10205;49.678;6.560;2023-06-14T08:50:20;5.88;;;4.00;;
20090;SDS011;10205;49.678;6.560;2023-06-14T08:52:50;8.75;;;4.20;;
20090;SDS011;10205;49.678;6.560;2023-06-14T08:55:22;4.47;;;3.70;;
20090;SDS011;10205;49.678;6.560;2023-06-14T08:57:53;6.90;;;3.53;;
20090;SDS011;10205;49.678;6.560;2023-06-14T09:00:22;3.75;;;3.17;;
20090;SDS011;10205;49.678;6.560;2023-06-14T09:02:50;5.82;;;3.95;;
20090;SDS011;10205;49.678;6.560;2023-06-14T09:05:24;9.07;;;4.15;;
20090;SDS011;10205;49.678;6.560;2023-06-14T09:07:52;7.35;;;3.83;;
20090;SDS011;10205;49.678;6.560;2023-06-14T09:10:21;8.20;;;3.97;;
20090;SDS011;10205;49.678;6.560;2023-06-14T09:12:50;5.25;;;3.83;;
20090;SDS011;10205;49.678;6.560;2023-06-14T09:15:18;5.80;;;3.72;;
20090;SDS011;10205;49.678;6.560;2023-06-14T09:17:45;4.30;;;3.42;;
20090;SDS011;10205;49.678;6.560;2023-06-14T09:20:13;4.47;;;3.65;;
20090;SDS011;10205;49.678;6.560;2023-06-14T09:22:44;7.47;;;4.05;;
20090;SDS011;10205;49.678;6.560;2023-06-14T09:25:12;7.60;;;3.45;;
20090;SDS011;10205;49.678;6.560;2023-06-14T09:27:40;6.15;;;3.80;;
20090;SDS011;10205;49.678;6.560;2023-06-14T09:30:09;8.38;;;4.30;;
20090;SDS011;10205;49.678;6.560;2023-06-14T09:32:37;5.85;;;3.78;;
20090;SDS011;10205;49.678;6.560;2023-06-14T09:35:06;7.60;;;3.78;;
20090;SDS011;10205;49.678;6.560;2023-06-14T09:37:35;10.32;;;4.10;;
20090;SDS011;10205;49.678;6.560;2023-06-14T09:40:05;6.47;;;4.20;;
20090;SDS011;10205;49.678;6.560;2023-06-14T09:42:34;8.27;;;4.10;;
20090;SDS011;10205;49.678;6.560;2023-06-14T09:45:02;11.13;;;4.10;;
20090;SDS011;10205;49.678;6.560;2023-06-14T09:47:31;5.97;;;4.28;;
20090;SDS011;10205;49.678;6.560;2023-06-14T09:49:58;4.18;;;3.53;;
20090;SDS011;10205;49.678;6.560;2023-06-14T09:52:25;6.70;;;3.60;;
20090;SDS011;10205;49.678;6.560;2023-06-14T09:54:58;7.20;;;3.85;;
20090;SDS011;10205;49.678;6.560;2023-06-14T09:57:28;11.63;;;4.47;;
20090;SDS011;10205;49.678;6.560;2023-06-14T09:59:58;6.18;;;3.80;;
20090;SDS011;10205;49.678;6.560;2023-06-14T10:02:36;5.10;;;4.03;;
20090;SDS011;10205;49.678;6.560;2023-06-14T10:05:05;6.25;;;3.60;;
20090;SDS011;10205;49.678;6.560;2023-06-14T10:07:35;8.30;;;3.47;;
20090;SDS011;10205;49.678;6.560;2023-06-14T10:10:10;6.82;;;3.42;;
20090;SDS011;10205;49.678;6.560;2023-06-14T10:12:39;9.02;;;3.63;;
20090;SDS011;10205;49.678;6.560;2023-06-14T10:15:07;4.82;;;3.65;;
20090;SDS011;10205;49.678;6.560;2023-06-14T10:17:42;3.63;;;3.30;;
20090;SDS011;10205;49.678;6.560;2023-06-14T10:20:18;5.30;;;3.60;;
20090;SDS011;10205;49.678;6.560;2023-06-14T10:22:56;5.55;;;3.38;;
20090;SDS011;10205;49.678;6.560;2023-06-14T10:25:31;6.63;;;3.60;;
20090;SDS011;10205;49.678;6.560;2023-06-14T10:28:05;4.60;;;3.28;;
20090;SDS011;10205;49.678;6.560;2023-06-14T10:31:02;8.55;;;3.47;;
20090;SDS011;10205;49.678;6.560;2023-06-14T10:33:31;5.85;;;3.30;;
20090;SDS011;10205;49.678;6.560;2023-06-14T10:36:09;3.42;;;3.13;;
20090;SDS011;10205;49.678;6.560;2023-06-14T10:38:56;10.55;;;3.30;;
20090;SDS011;10205;49.678;6.560;2023-06-14T10:41:26;3.67;;;3.25;;
20090;SDS011;10205;49.678;6.560;2023-06-14T10:47:21;3.53;;;3.22;;
20090;SDS011;10205;49.678;6.560;2023-06-14T10:49:52;6.15;;;3.35;;
20090;SDS011;10205;49.678;6.560;2023-06-14T10:52:24;8.90;;;3.40;;
20090;SDS011;10205;49.678;6.560;2023-06-14T10:55:07;5.93;;;3.00;;
20090;SDS011;10205;49.678;6.560;2023-06-14T10:57:38;9.25;;;3.10;;
20090;SDS011;10205;49.678;6.560;2023-06-14T11:00:09;4.15;;;3.13;;
20090;SDS011;10205;49.678;6.560;2023-06-14T11:02:46;4.35;;;3.03;;
20090;SDS011;10205;49.678;6.560;2023-06-14T11:05:57;5.05;;;2.80;;
20090;SDS011;10205;49.678;6.560;2023-06-14T11:11:57;5.32;;;3.03;;
20090;SDS011;10205;49.678;6.560;2023-06-14T11:14:29;5.15;;;3.17;;
20090;SDS011;10205;49.678;6.560;2023-06-14T11:16:58;5.53;;;3.22;;
20090;SDS011;10205;49.678;6.560;2023-06-14T11:19:25;3.50;;;2.80;;
20090;SDS011;10205;49.678;6.560;2023-06-14T11:21:54;4.47;;;2.63;;
20090;SDS011;10205;49.678;6.560;2023-06-14T11:24:21;3.92;;;3.05;;
20090;SDS011;10205;49.678;6.560;2023-06-14T11:26:49;5.78;;;3.03;;
20090;SDS011;10205;49.678;6.560;2023-06-14T11:29:16;6.95;;;3.17;;
20090;SDS011;10205;49.678;6.560;2023-06-14T11:31:46;9.35;;;3.25;;
20090;SDS011;10205;49.678;6.560;2023-06-14T11:34:15;3.08;;;2.78;;
20090;SDS011;10205;49.678;6.560;2023-06-14T11:36:43;6.18;;;3.25;;
20090;SDS011;10205;49.678;6.560;2023-06-14T11:39:12;4.43;;;2.80;;
20090;SDS011;10205;49.678;6.560;2023-06-14T11:41:41;4.53;;;2.63;;
20090;SDS011;10205;49.678;6.560;2023-06-14T11:44:10;5.07;;;3.00;;
20090;SDS011;10205;49.678;6.560;2023-06-14T11:46:38;2.45;;;2.20;;
20090;SDS011;10205;49.678;6.560;2023-06-14T11:49:06;10.38;;;3.85;;
20090;SDS011;10205;49.678;6.560;2023-06-14T11:51:36;3.83;;;2.83;;
20090;SDS011;10205;49.678;6.560;2023-06-14T11:54:04;4.07;;;3.10;;
20090;SDS011;10205;49.678;6.560;2023-06-14T11:56:34;4.68;;;2.70;;
20090;SDS011;10205;49.678;6.560;2023-06-14T11:59:02;3.58;;;2.83;;
20090;SDS011;10205;49.678;6.560;2023-06-14T12:01:30;3.70;;;3.05;;
20090;SDS011;10205;49.678;6.560;2023-06-14T12:03:58;4.35;;;3.13;;
20090;SDS011;10205;49.678;6.560;2023-06-14T12:06:27;2.78;;;2.55;;
20090;SDS011;10205;49.678;6.560;2023-06-14T12:08:59;5.97;;;2.75;;
20090;SDS011;10205;49.678;6.560;2023-06-14T12:11:31;3.70;;;2.35;;
20090;SDS011;10205;49.678;6.560;2023-06-14T12:14:00;7.40;;;3.00;;
20090;SDS011;10205;49.678;6.560;2023-06-14T12:16:32;6.72;;;2.50;;
20090;SDS011;10205;49.678;6.560;2023-06-14T12:19:07;5.75;;;2.75;;
20090;SDS011;10205;49.678;6.560;2023-06-14T12:21:38;3.05;;;2.63;;
20090;SDS011;10205;49.678;6.560;2023-06-14T12:24:08;3.75;;;2.80;;
20090;SDS011;10205;49.678;6.560;2023-06-14T12:26:37;3.05;;;2.45;;
20090;SDS011;10205;49.678;6.560;2023-06-14T12:29:07;3.80;;;2.45;;
20090;SDS011;10205;49.678;6.560;2023-06-14T12:31:35;3.83;;;3.10;;
20090;SDS011;10205;49.678;6.560;2023-06-14T12:34:02;4.28;;;2.40;;
20090;SDS011;10205;49.678;6.560;2023-06-14T12:36:29;5.22;;;2.63;;
20090;SDS011;10205;49.678;6.560;2023-06-14T12:38:57;2.97;;;2.20;;
20090;SDS011;10205;49.678;6.560;2023-06-14T12:41:26;3.97;;;2.63;;
20090;SDS011;10205;49.678;6.560;2023-06-14T12:43:53;3.25;;;2.63;;
20090;SDS011;10205;49.678;6.560;2023-06-14T12:46:23;7.40;;;2.80;;
20090;SDS011;10205;49.678;6.560;2023-06-14T12:48:50;6.65;;;2.80;;
20090;SDS011;10205;49.678;6.560;2023-06-14T12:51:18;4.93;;;2.70;;
20090;SDS011;10205;49.678;6.560;2023-06-14T12:53:45;3.15;;;2.40;;
20090;SDS011;10205;49.678;6.560;2023-06-14T12:56:12;3.90;;;2.35;;
20090;SDS011;10205;49.678;6.560;2023-06-14T12:58:41;4.18;;;2.63;;
20090;SDS011;10205;49.678;6.560;2023-06-14T13:01:08;6.75;;;2.97;;
20090;SDS011;10205;49.678;6.560;2023-06-14T13:03:35;3.38;;;2.13;;
20090;SDS011;10205;49.678;6.560;2023-06-14T13:06:02;4.00;;;2.60;;
20090;SDS011;10205;49.678;6.560;2023-06-14T13:08:30;3.08;;;2.50;;
20090;SDS011;10205;49.678;6.560;2023-06-14T13:10:57;3.17;;;2.20;;
20090;SDS011;10205;49.678;6.560;2023-06-14T13:13:25;2.35;;;2.00;;
20090;SDS011;10205;49.678;6.560;2023-06-14T13:15:54;3.47;;;2.58;;
20090;SDS011;10205;49.678;6.560;2023-06-14T13:18:21;3.05;;;2.60;;
20090;SDS011;10205;49.678;6.560;2023-06-14T13:20:48;6.78;;;2.90;;
20090;SDS011;10205;49.678;6.560;2023-06-14T13:23:16;2.95;;;2.15;;
20090;SDS011;10205;49.678;6.560;2023-06-14T13:25:43;3.17;;;2.35;;
20090;SDS011;10205;49.678;6.560;2023-06-14T13:28:10;2.67;;;2.13;;
20090;SDS011;10205;49.678;6.560;2023-06-14T13:30:38;2.90;;;2.20;;
20090;SDS011;10205;49.678;6.560;2023-06-14T13:33:06;3.92;;;2.28;;
20090;SDS011;10205;49.678;6.560;2023-06-14T13:35:34;2.92;;;2.10;;
20090;SDS011;10205;49.678;6.560;2023-06-14T13:38:01;5.65;;;2.70;;
20090;SDS011;10205;49.678;6.560;2023-06-14T13:40:28;5.03;;;2.38;;
20090;SDS011;10205;49.678;6.560;2023-06-14T13:42:55;4.45;;;2.40;;
20090;SDS011;10205;49.678;6.560;2023-06-14T13:45:23;2.08;;;1.98;;
20090;SDS011;10205;49.678;6.560;2023-06-14T13:47:51;2.63;;;1.92;;
20090;SDS011;10205;49.678;6.560;2023-06-14T13:50:21;2.38;;;2.17;;
20090;SDS011;10205;49.678;6.560;2023-06-14T13:52:48;10.10;;;2.72;;
20090;SDS011;10205;49.678;6.560;2023-06-14T13:55:16;6.00;;;2.70;;
20090;SDS011;10205;49.678;6.560;2023-06-14T13:57:43;3.67;;;2.58;;
20090;SDS011;10205;49.678;6.560;2023-06-14T14:00:11;7.55;;;2.90;;
20090;SDS011;10205;49.678;6.560;2023-06-14T14:02:39;19.60;;;3.78;;
20090;SDS011;10205;49.678;6.560;2023-06-14T14:05:08;12.48;;;2.60;;
20090;SDS011;10205;49.678;6.560;2023-06-14T14:07:37;5.65;;;2.22;;
20090;SDS011;10205;49.678;6.560;2023-06-14T14:10:05;3.50;;;2.45;;
20090;SDS011;10205;49.678;6.560;2023-06-14T14:12:33;9.30;;;2.72;;
20090;SDS011;10205;49.678;6.560;2023-06-14T14:15:02;4.50;;;2.25;;
20090;SDS011;10205;49.678;6.560;2023-06-14T14:17:32;7.82;;;2.92;;
20090;SDS011;10205;49.678;6.560;2023-06-14T14:19:59;3.65;;;2.08;;
20090;SDS011;10205;49.678;6.560;2023-06-14T14:22:26;5.45;;;2.20;;
20090;SDS011;10205;49.678;6.560;2023-06-14T14:24:55;6.63;;;2.75;;
20090;SDS011;10205;49.678;6.560;2023-06-14T14:27:22;10.57;;;3.25;;
20090;SDS011;10205;49.678;6.560;2023-06-14T14:29:49;6.13;;;2.50;;
20090;SDS011;10205;49.678;6.560;2023-06-14T14:32:17;6.22;;;1.92;;
20090;SDS011;10205;49.678;6.560;2023-06-14T14:34:44;18.83;;;3.65;;
20090;SDS011;10205;49.678;6.560;2023-06-14T14:37:11;4.78;;;2.80;;
20090;SDS011;10205;49.678;6.560;2023-06-14T14:39:40;3.35;;;2.33;;
20090;SDS011;10205;49.678;6.560;2023-06-14T14:42:08;10.63;;;2.50;;
20090;SDS011;10205;49.678;6.560;2023-06-14T14:44:36;4.20;;;2.28;;
20090;SDS011;10205;49.678;6.560;2023-06-14T14:47:04;4.22;;;1.98;;
20090;SDS011;10205;49.678;6.560;2023-06-14T14:49:32;4.00;;;2.20;;
20090;SDS011;10205;49.678;6.560;2023-06-14T14:51:59;6.45;;;2.20;;
20090;SDS011;10205;49.678;6.560;2023-06-14T14:54:26;2.72;;;2.13;;
20090;SDS011;10205;49.678;6.560;2023-06-14T14:56:54;3.78;;;2.10;;
20090;SDS011;10205;49.678;6.560;2023-06-14T14:59:23;4.15;;;2.13;;
20090;SDS011;10205;49.678;6.560;2023-06-14T15:01:50;3.83;;;2.03;;
20090;SDS011;10205;49.678;6.560;2023-06-14T15:04:17;4.53;;;2.20;;